Time;durP1;ratioP1;P1;durP2;ratioP2;P2;SDS_P1;SDS_P2;PMS_P1;PMS_P2;Temp;Humidity;BMP_temperature;BMP_pressure;BME280_temperature;BME280_humidity;BME280_pressure;Samples;Min_cycle;Max_cycle;Signal;HPM_P1;HPM_P2
2023/07/27 00:01:32;;;;;;;3.05;1.83;;;17.30;93.60;;;;;;4989530;28;20042;-70
2023/07/27 00:04:18;;;;;;;2.75;1.73;;;17.30;93.70;;;;;;4989374;28;20211;-70
2023/07/27 00:07:04;;;;;;;2.85;1.98;;;17.20;93.70;;;;;;4998911;28;20054;-69
2023/07/27 00:09:50;;;;;;;2.58;1.83;;;17.20;93.80;;;;;;5000499;28;20510;-69
2023/07/27 00:12:36;;;;;;;2.42;1.60;;;17.10;93.90;;;;;;4995473;28;20046;-70
2023/07/27 00:15:22;;;;;;;3.40;1.67;;;17.10;94.00;;;;;;4991727;28;20034;-70
2023/07/27 00:18:08;;;;;;;4.28;2.10;;;17.10;94.20;;;;;;4989641;28;20581;-70
2023/07/27 00:20:54;;;;;;;3.13;1.90;;;17.10;94.20;;;;;;4993159;28;20100;-69
2023/07/27 00:23:40;;;;;;;3.33;1.92;;;17.10;94.40;;;;;;4984576;28;20449;-69
2023/07/27 00:26:26;;;;;;;2.75;1.77;;;17.00;94.50;;;;;;4998615;28;20047;-69
2023/07/27 00:29:12;;;;;;;3.30;1.80;;;17.00;94.50;;;;;;4989000;28;20038;-69
2023/07/27 00:31:58;;;;;;;3.20;1.90;;;16.90;94.60;;;;;;4991506;28;20057;-69
2023/07/27 00:34:44;;;;;;;2.28;1.75;;;16.90;94.70;;;;;;4990224;28;20042;-68
2023/07/27 00:37:29;;;;;;;3.08;2.00;;;16.90;94.80;;;;;;4977622;28;20045;-68
2023/07/27 00:40:17;;;;;;;2.65;1.98;;;16.80;94.90;;;;;;4997363;28;20062;-69
2023/07/27 00:43:03;;;;;;;3.30;1.95;;;16.80;95.10;;;;;;4990588;28;20053;-70
2023/07/27 00:45:50;;;;;;;3.85;2.20;;;16.70;95.10;;;;;;4990647;28;20093;-68
2023/07/27 00:48:36;;;;;;;4.45;2.20;;;16.70;95.20;;;;;;4997279;28;20052;-68
2023/07/27 00:51:22;;;;;;;4.13;1.85;;;16.70;95.30;;;;;;5008505;28;20054;-69
2023/07/27 00:54:10;;;;;;;2.75;2.03;;;16.60;95.40;;;;;;4993160;28;20051;-69
2023/07/27 00:56:55;;;;;;;2.58;1.80;;;16.60;95.60;;;;;;4997225;28;20050;-70
2023/07/27 00:59:41;;;;;;;2.35;1.88;;;16.60;95.70;;;;;;4993903;28;20046;-70
2023/07/27 01:02:28;;;;;;;2.80;1.80;;;16.50;95.80;;;;;;4999595;28;20120;-70
2023/07/27 01:05:15;;;;;;;2.45;1.80;;;16.50;95.90;;;;;;4997887;28;20482;-68
2023/07/27 01:08:02;;;;;;;4.82;1.85;;;16.50;96.00;;;;;;4997908;28;20463;-69
2023/07/27 01:10:53;;;;;;;5.95;2.50;;;16.50;96.10;;;;;;4991788;28;20448;-68
2023/07/27 01:13:48;;;;;;;3.65;1.80;;;16.40;96.20;;;;;;4993226;28;20042;-68
2023/07/27 01:16:47;;;;;;;3.40;2.08;;;16.40;96.30;;;;;;4980093;28;20070;-68
2023/07/27 01:20:05;;;;;;;3.92;2.00;;;16.40;96.40;;;;;;5003351;28;20453;-69
2023/07/27 01:23:15;;;;;;;2.85;1.80;;;16.40;96.50;;;;;;5003518;28;20116;-68
2023/07/27 01:26:43;;;;;;;2.50;1.67;;;16.30;96.50;;;;;;5007848;28;20073;-68
2023/07/27 01:29:57;;;;;;;2.67;1.92;;;16.30;96.70;;;;;;5009507;28;20046;-68
2023/07/27 01:32:46;;;;;;;2.85;1.85;;;16.20;96.80;;;;;;5009025;28;20077;-69
2023/07/27 01:35:39;;;;;;;3.92;2.13;;;16.20;96.90;;;;;;5010381;28;20050;-69
2023/07/27 01:38:26;;;;;;;3.75;2.08;;;16.20;97.00;;;;;;4994268;28;20121;-69
2023/07/27 01:41:15;;;;;;;8.30;2.05;;;16.20;97.10;;;;;;4977568;28;20084;-69
2023/07/27 01:44:01;;;;;;;2.95;2.00;;;16.20;97.20;;;;;;4993525;28;20169;-70
2023/07/27 01:46:48;;;;;;;4.18;2.00;;;16.10;97.30;;;;;;4992746;28;20190;-68
2023/07/27 01:49:37;;;;;;;3.33;2.30;;;16.10;97.30;;;;;;5007319;28;20057;-69
2023/07/27 01:52:25;;;;;;;3.42;2.17;;;16.10;97.50;;;;;;4991763;28;20162;-69
2023/07/27 01:55:15;;;;;;;3.63;2.28;;;16.10;97.50;;;;;;4995468;28;20072;-70
2023/07/27 01:58:03;;;;;;;3.08;2.17;;;16.00;97.60;;;;;;5007233;28;20530;-70
2023/07/27 02:00:49;;;;;;;3.55;2.40;;;16.00;97.70;;;;;;5001428;28;20050;-69
2023/07/27 02:03:36;;;;;;;3.20;2.03;;;16.00;97.80;;;;;;5001432;28;20133;-69
2023/07/27 02:06:22;;;;;;;3.90;2.20;;;16.00;97.90;;;;;;4993862;28;20483;-69
2023/07/27 02:09:08;;;;;;;3.53;2.20;;;15.90;98.00;;;;;;4997611;28;20050;-69
2023/07/27 02:12:05;;;;;;;3.30;2.17;;;15.90;98.10;;;;;;4991235;28;20061;-68
2023/07/27 02:15:10;;;;;;;4.28;2.92;;;15.90;98.20;;;;;;5008539;28;20411;-68
2023/07/27 02:18:06;;;;;;;3.45;2.30;;;15.80;98.20;;;;;;5003529;28;20046;-68
2023/07/27 02:20:55;;;;;;;3.35;2.65;;;15.80;98.30;;;;;;4991915;28;20149;-68
2023/07/27 02:23:41;;;;;;;3.28;2.20;;;15.80;98.40;;;;;;4993074;28;20042;-68
2023/07/27 02:26:28;;;;;;;3.40;2.42;;;15.80;98.40;;;;;;4994511;28;20060;-69
2023/07/27 02:29:14;;;;;;;3.95;2.58;;;15.70;98.50;;;;;;4994120;28;20056;-68
2023/07/27 02:31:59;;;;;;;3.63;2.33;;;15.70;98.50;;;;;;5010635;28;20050;-69
2023/07/27 02:34:45;;;;;;;3.78;2.35;;;15.70;98.60;;;;;;4994206;28;20081;-68
2023/07/27 02:37:31;;;;;;;3.60;2.42;;;15.70;98.70;;;;;;5008838;28;20077;-68
2023/07/27 02:40:17;;;;;;;3.97;2.60;;;15.70;98.70;;;;;;5000317;28;20040;-68
2023/07/27 02:43:04;;;;;;;3.38;2.33;;;15.60;98.70;;;;;;4997693;28;20049;-69
2023/07/27 02:45:49;;;;;;;4.32;2.47;;;15.60;98.80;;;;;;5007184;28;20139;-69
2023/07/27 02:48:36;;;;;;;5.78;2.80;;;15.60;98.90;;;;;;5009056;28;20121;-68
2023/07/27 02:51:22;;;;;;;3.03;2.28;;;15.60;98.90;;;;;;4992324;28;20477;-69
2023/07/27 02:54:08;;;;;;;3.78;2.55;;;15.60;98.90;;;;;;4997722;28;20480;-70
2023/07/27 02:56:54;;;;;;;4.55;2.78;;;15.60;99.00;;;;;;4983555;28;20054;-69
2023/07/27 02:59:40;;;;;;;4.47;2.83;;;15.60;99.00;;;;;;4977480;28;20704;-67
2023/07/27 03:02:26;;;;;;;4.00;2.70;;;15.50;99.00;;;;;;5005394;28;20053;-68
2023/07/27 03:05:12;;;;;;;6.22;3.13;;;15.60;99.10;;;;;;5010115;28;20482;-68
2023/07/27 03:07:58;;;;;;;3.70;2.50;;;15.50;99.10;;;;;;5006549;28;20353;-69
2023/07/27 03:10:43;;;;;;;4.07;3.42;;;15.50;99.20;;;;;;4991406;28;20873;-68
2023/07/27 03:13:31;;;;;;;4.38;3.03;;;15.50;99.20;;;;;;4995904;28;20035;-69
2023/07/27 03:16:17;;;;;;;3.05;2.33;;;15.40;99.30;;;;;;4993562;28;20050;-68
2023/07/27 03:19:02;;;;;;;4.65;3.03;;;15.40;99.30;;;;;;4994333;28;20046;-69
2023/07/27 03:21:48;;;;;;;5.25;3.33;;;15.40;99.40;;;;;;4998173;28;20092;-69
2023/07/27 03:24:34;;;;;;;3.60;2.30;;;15.40;99.40;;;;;;5008536;28;20128;-69
2023/07/27 03:27:20;;;;;;;3.28;2.63;;;15.40;99.40;;;;;;4988318;28;20041;-69
2023/07/27 03:30:07;;;;;;;4.25;3.05;;;15.40;99.50;;;;;;4998699;28;20112;-69
2023/07/27 03:32:53;;;;;;;4.47;3.13;;;15.40;99.50;;;;;;4991257;28;20383;-69
2023/07/27 03:35:39;;;;;;;4.47;3.10;;;15.40;99.60;;;;;;4989986;28;20128;-69
2023/07/27 03:38:25;;;;;;;3.85;2.97;;;15.40;99.60;;;;;;5005391;28;20127;-69
2023/07/27 03:41:14;;;;;;;3.13;2.45;;;15.40;99.70;;;;;;5008729;28;20388;-68
2023/07/27 03:44:00;;;;;;;4.30;2.72;;;15.30;99.70;;;;;;5000135;28;20403;-70
2023/07/27 03:46:46;;;;;;;3.90;3.00;;;15.40;99.80;;;;;;5007377;28;20046;-68
2023/07/27 03:49:32;;;;;;;4.55;3.25;;;15.30;99.80;;;;;;4992225;28;20045;-69
2023/07/27 03:52:18;;;;;;;4.35;3.38;;;15.30;99.80;;;;;;4992478;28;20053;-68
2023/07/27 03:55:05;;;;;;;5.50;3.38;;;15.30;99.90;;;;;;4997764;28;20042;-68
2023/07/27 03:57:51;;;;;;;4.43;3.42;;;15.30;99.90;;;;;;4988357;28;20045;-69
2023/07/27 04:00:37;;;;;;;4.00;3.05;;;15.30;99.90;;;;;;4994536;28;20034;-68
2023/07/27 04:03:23;;;;;;;5.43;3.40;;;15.40;99.90;;;;;;4992139;28;20048;-71
2023/07/27 04:06:09;;;;;;;4.40;3.13;;;15.40;99.90;;;;;;5006056;28;20042;-64
2023/07/27 04:08:55;;;;;;;5.30;3.33;;;15.30;99.90;;;;;;4991471;28;20057;-61
2023/07/27 04:11:41;;;;;;;4.82;3.05;;;15.40;99.90;;;;;;5001575;28;20096;-63
2023/07/27 04:14:27;;;;;;;5.10;3.17;;;15.40;99.90;;;;;;5003589;28;20491;-71
2023/07/27 04:17:13;;;;;;;4.43;3.38;;;15.40;99.90;;;;;;4995114;28;20541;-68
2023/07/27 04:19:59;;;;;;;4.97;3.38;;;15.40;99.90;;;;;;4991223;28;20086;-70
2023/07/27 04:22:45;;;;;;;4.80;3.20;;;15.40;99.90;;;;;;4991437;28;20042;-67
2023/07/27 04:25:31;;;;;;;5.82;3.40;;;15.50;99.90;;;;;;5008780;28;20053;-66
2023/07/27 04:28:17;;;;;;;4.05;3.30;;;15.50;99.90;;;;;;5011251;28;20088;-66
2023/07/27 04:31:03;;;;;;;6.05;3.45;;;15.50;99.90;;;;;;5012821;28;20050;-66
2023/07/27 04:33:49;;;;;;;4.13;3.25;;;15.50;99.90;;;;;;4998233;28;20406;-66
2023/07/27 04:36:35;;;;;;;5.43;3.47;;;15.60;99.90;;;;;;5007949;28;20487;-72
2023/07/27 04:39:21;;;;;;;4.45;3.20;;;15.60;99.90;;;;;;4996788;28;20131;-73
2023/07/27 04:42:07;;;;;;;3.90;2.75;;;15.70;99.90;;;;;;5007512;28;20046;-72
2023/07/27 04:44:53;;;;;;;4.15;3.40;;;15.60;99.90;;;;;;4998331;28;20084;-72
2023/07/27 04:47:39;;;;;;;7.55;4.05;;;15.70;99.90;;;;;;5001387;28;20034;-73
2023/07/27 04:50:25;;;;;;;4.90;3.92;;;15.70;99.90;;;;;;5000809;28;20096;-71
2023/07/27 04:53:11;;;;;;;4.90;3.40;;;15.70;99.90;;;;;;5004830;28;20056;-71
2023/07/27 04:55:57;;;;;;;5.90;4.18;;;15.80;99.90;;;;;;5009880;28;20454;-71
2023/07/27 04:58:43;;;;;;;4.68;3.38;;;15.80;99.90;;;;;;4991864;28;20054;-71
2023/07/27 05:01:29;;;;;;;4.60;3.50;;;15.80;99.90;;;;;;4993223;28;20035;-71
2023/07/27 05:04:15;;;;;;;6.63;4.00;;;15.90;99.90;;;;;;4993264;28;20050;-74
2023/07/27 05:07:01;;;;;;;5.38;3.83;;;15.90;99.90;;;;;;4994499;28;20035;-74
2023/07/27 05:09:47;;;;;;;4.38;3.22;;;16.00;99.90;;;;;;5006050;28;20053;-73
2023/07/27 05:12:33;;;;;;;5.00;3.10;;;16.00;99.90;;;;;;4997442;28;20049;-73
2023/07/27 05:15:19;;;;;;;6.43;3.40;;;16.00;99.90;;;;;;4992508;28;20479;-74
2023/07/27 05:18:05;;;;;;;4.32;2.90;;;16.10;99.90;;;;;;4993429;28;20399;-74
2023/07/27 05:20:50;;;;;;;5.13;3.53;;;16.10;99.90;;;;;;4992594;28;20042;-74
2023/07/27 05:23:36;;;;;;;4.38;3.53;;;16.20;99.90;;;;;;4994193;28;20109;-74
2023/07/27 05:26:22;;;;;;;8.65;4.00;;;16.20;99.80;;;;;;5003929;28;20407;-74
2023/07/27 05:29:08;;;;;;;4.18;3.30;;;16.30;99.80;;;;;;5000120;28;20060;-74
2023/07/27 05:31:54;;;;;;;4.65;3.53;;;16.30;99.80;;;;;;5006991;28;20096;-74
2023/07/27 05:34:40;;;;;;;4.45;3.20;;;16.30;99.80;;;;;;4997089;28;20057;-73
2023/07/27 05:37:26;;;;;;;3.90;2.88;;;16.40;99.70;;;;;;5006771;28;20042;-70
2023/07/27 05:40:14;;;;;;;4.70;3.30;;;16.50;99.60;;;;;;5002081;28;20057;-72
2023/07/27 05:43:00;;;;;;;5.20;3.17;;;16.50;99.60;;;;;;5010672;28;20132;-71
2023/07/27 05:45:46;;;;;;;6.72;2.85;;;16.60;99.40;;;;;;5003680;28;20503;-72
2023/07/27 05:48:33;;;;;;;5.38;3.13;;;16.60;99.40;;;;;;5000827;28;20141;-71
2023/07/27 05:51:19;;;;;;;4.65;3.17;;;16.70;99.40;;;;;;4999053;28;20054;-71
2023/07/27 05:54:05;;;;;;;4.57;2.90;;;16.80;99.20;;;;;;5008939;28;20434;-72
2023/07/27 05:56:54;;;;;;;6.07;2.85;;;16.90;99.20;;;;;;5003282;28;20046;-73
2023/07/27 05:59:40;;;;;;;3.70;2.63;;;17.00;99.10;;;;;;4994537;28;20078;-73
2023/07/27 06:02:26;;;;;;;6.63;2.72;;;17.10;99.00;;;;;;4995386;28;20279;-72
2023/07/27 06:05:12;;;;;;;4.90;2.83;;;17.20;99.00;;;;;;4992396;28;20034;-66
2023/07/27 06:07:58;;;;;;;3.92;2.72;;;17.30;98.90;;;;;;5000872;28;20050;-67
2023/07/27 06:10:44;;;;;;;4.80;3.20;;;17.40;98.80;;;;;;5007333;28;20050;-69
2023/07/27 06:13:31;;;;;;;4.97;2.67;;;17.50;98.60;;;;;;5002550;28;20050;-68
2023/07/27 06:16:17;;;;;;;4.80;2.35;;;17.70;98.40;;;;;;5008029;28;20483;-69
2023/07/27 06:19:03;;;;;;;3.72;2.78;;;17.80;98.30;;;;;;4986988;28;20659;-67
2023/07/27 06:21:49;;;;;;;4.80;2.50;;;18.00;98.20;;;;;;5006864;28;20093;-67
2023/07/27 06:24:35;;;;;;;4.35;2.63;;;18.00;98.00;;;;;;5009734;28;20056;-66
2023/07/27 06:27:21;;;;;;;4.38;2.88;;;18.10;97.90;;;;;;5005604;28;20038;-66
2023/07/27 06:30:08;;;;;;;4.97;3.10;;;18.30;97.70;;;;;;5010254;28;20096;-67
2023/07/27 06:32:54;;;;;;;5.18;2.70;;;18.40;97.50;;;;;;5006951;28;20088;-66
2023/07/27 06:35:40;;;;;;;4.63;3.05;;;18.50;97.30;;;;;;5009643;28;20101;-66
2023/07/27 06:38:26;;;;;;;4.15;2.70;;;18.50;97.30;;;;;;4993454;28;20422;-66
2023/07/27 06:41:12;;;;;;;3.80;2.50;;;18.60;97.20;;;;;;4991333;28;20510;-66
2023/07/27 06:43:58;;;;;;;3.97;2.83;;;18.70;97.00;;;;;;4992065;28;20049;-66
2023/07/27 06:46:44;;;;;;;4.45;2.80;;;18.80;97.10;;;;;;5009426;28;20486;-66
2023/07/27 06:49:29;;;;;;;5.25;2.50;;;18.90;96.90;;;;;;4990699;28;20050;-66
2023/07/27 06:52:15;;;;;;;4.15;2.40;;;18.90;96.80;;;;;;4992072;28;20085;-65
2023/07/27 06:55:01;;;;;;;4.15;2.10;;;19.10;96.80;;;;;;4990710;28;20048;-66
2023/07/27 06:57:47;;;;;;;4.07;2.40;;;19.10;96.70;;;;;;5005164;28;20518;-66
2023/07/27 07:00:33;;;;;;;8.40;2.55;;;19.20;96.60;;;;;;5007907;28;20509;-67
2023/07/27 07:03:19;;;;;;;4.15;2.95;;;19.30;96.40;;;;;;5006793;28;20045;-67
2023/07/27 07:06:05;;;;;;;5.18;2.60;;;19.40;96.30;;;;;;5009941;28;20103;-67
2023/07/27 07:08:51;;;;;;;10.55;2.38;;;19.50;96.40;;;;;;4990532;28;20038;-67
2023/07/27 07:11:37;;;;;;;3.42;2.20;;;19.50;96.00;;;;;;5004759;28;20057;-67
2023/07/27 07:14:23;;;;;;;6.13;2.35;;;19.50;95.80;;;;;;4996278;28;20065;-67
2023/07/27 07:17:09;;;;;;;5.15;2.75;;;19.60;95.70;;;;;;5001061;28;20072;-67
2023/07/27 07:19:54;;;;;;;5.93;2.60;;;19.70;95.80;;;;;;5006528;28;20054;-68
2023/07/27 07:22:40;;;;;;;5.82;2.25;;;19.70;95.60;;;;;;5006351;28;20050;-67
2023/07/27 07:25:26;;;;;;;3.95;2.40;;;19.90;95.40;;;;;;5008924;28;20038;-67
2023/07/27 07:28:12;;;;;;;4.65;2.80;;;20.00;95.20;;;;;;5004726;28;20045;-67
2023/07/27 07:30:58;;;;;;;4.07;2.38;;;20.00;95.10;;;;;;5000412;28;20050;-66
2023/07/27 07:33:44;;;;;;;3.63;2.60;;;20.20;95.00;;;;;;4998365;28;20044;-66
2023/07/27 07:36:30;;;;;;;4.03;2.72;;;20.30;94.80;;;;;;5000145;28;20064;-66
2023/07/27 07:39:17;;;;;;;4.97;2.13;;;20.40;94.70;;;;;;5000260;28;20042;-66
2023/07/27 07:42:03;;;;;;;12.35;2.97;;;20.60;94.70;;;;;;4993181;28;20041;-66
2023/07/27 07:44:49;;;;;;;13.27;3.35;;;20.70;94.70;;;;;;4990392;28;20061;-67
2023/07/27 07:47:35;;;;;;;4.22;2.40;;;20.80;94.60;;;;;;4995088;28;20041;-67
2023/07/27 07:50:21;;;;;;;6.13;2.50;;;21.00;94.30;;;;;;4991090;28;20130;-67
2023/07/27 07:53:07;;;;;;;7.13;2.78;;;21.10;94.30;;;;;;4998620;28;20056;-67
2023/07/27 07:55:53;;;;;;;5.43;2.90;;;21.20;94.10;;;;;;4998652;28;20038;-67
2023/07/27 07:58:39;;;;;;;6.22;3.72;;;21.30;94.00;;;;;;4991597;28;20050;-68
2023/07/27 08:01:25;;;;;;;4.28;2.63;;;21.30;93.80;;;;;;4990278;28;20041;-67
2023/07/27 08:04:11;;;;;;;5.22;3.10;;;21.40;93.70;;;;;;5001463;28;20096;-67
2023/07/27 08:06:57;;;;;;;3.75;2.55;;;21.40;93.40;;;;;;5002756;28;20064;-66
2023/07/27 08:09:43;;;;;;;5.05;2.25;;;21.50;93.40;;;;;;5004259;28;20065;-66
2023/07/27 08:12:29;;;;;;;9.25;2.88;;;21.50;93.20;;;;;;5000819;28;20046;-66
2023/07/27 08:15:15;;;;;;;9.23;3.22;;;21.50;93.00;;;;;;4990932;28;20050;-69
2023/07/27 08:18:01;;;;;;;5.70;2.72;;;21.60;93.10;;;;;;4992247;28;20041;-68
2023/07/27 08:21:04;;;;;;;3.42;2.28;;;21.60;93.00;;;;;;5008060;28;20069;-67
2023/07/27 08:23:51;;;;;;;4.28;2.83;;;21.70;92.70;;;;;;4989797;28;20044;-68
2023/07/27 08:26:37;;;;;;;4.05;2.25;;;21.80;92.40;;;;;;4994293;28;20049;-67
2023/07/27 08:29:23;;;;;;;5.05;2.35;;;21.80;92.40;;;;;;4993601;28;20042;-67
2023/07/27 08:32:09;;;;;;;5.85;3.28;;;21.80;92.30;;;;;;5007347;28;20060;-66
2023/07/27 08:34:55;;;;;;;5.82;3.00;;;21.80;92.40;;;;;;5001161;28;20058;-65
2023/07/27 08:37:41;;;;;;;8.68;3.25;;;21.80;92.40;;;;;;5006568;28;20120;-66
2023/07/27 08:40:27;;;;;;;7.80;2.78;;;21.90;92.10;;;;;;4995123;28;20084;-65
2023/07/27 08:45:44;;;;;;;7.93;2.22;;;22.00;92.10;;;;;;4989741;28;20402;-64
2023/07/27 08:48:30;;;;;;;4.40;2.40;;;22.00;91.90;;;;;;4989241;28;20410;-62
2023/07/27 08:53:51;;;;;;;6.00;2.00;;;22.00;91.50;;;;;;5143232;22;20047;-68
2023/07/27 08:56:37;;;;;;;7.72;2.83;;;22.00;91.40;;;;;;4979443;28;20051;-66
2023/07/27 08:59:24;;;;;;;8.07;3.13;;;22.00;91.50;;;;;;4981532;28;20093;-65
2023/07/27 09:02:10;;;;;;;6.40;2.40;;;21.90;91.70;;;;;;4979253;28;20042;-65
2023/07/27 09:04:56;;;;;;;4.10;2.50;;;21.90;91.60;;;;;;4984088;28;20104;-65
2023/07/27 09:07:42;;;;;;;8.82;3.95;;;21.90;91.50;;;;;;4978311;28;20054;-66
2023/07/27 09:10:28;;;;;;;4.75;2.25;;;21.90;91.50;;;;;;4974850;28;20045;-65
2023/07/27 09:13:14;;;;;;;4.70;2.65;;;21.90;91.40;;;;;;4981130;28;20042;-66
2023/07/27 09:16:02;;;;;;;4.70;2.35;;;21.90;91.20;;;;;;4988469;28;20046;-65
2023/07/27 09:18:48;;;;;;;4.00;2.40;;;21.90;91.20;;;;;;4988278;28;20038;-66
2023/07/27 09:21:41;;;;;;;3.50;2.17;;;21.90;91.30;;;;;;4980462;28;20034;-66
2023/07/27 09:24:32;;;;;;;5.47;2.25;;;21.90;91.40;;;;;;4975670;28;20050;-65
2023/07/27 09:27:18;;;;;;;4.40;2.65;;;21.90;91.50;;;;;;4988567;28;20049;-66
2023/07/27 09:30:04;;;;;;;4.03;2.35;;;21.90;91.40;;;;;;4990701;28;20042;-66
2023/07/27 09:32:52;;;;;;;5.40;2.83;;;21.90;91.40;;;;;;4988039;28;20051;-66
2023/07/27 09:35:38;;;;;;;5.13;2.50;;;21.80;91.10;;;;;;4981792;28;20057;-66
2023/07/27 09:38:25;;;;;;;11.80;2.92;;;21.80;91.00;;;;;;4986783;28;20046;-66
2023/07/27 09:41:12;;;;;;;6.57;2.78;;;21.80;91.00;;;;;;4990845;28;20034;-65
2023/07/27 09:43:58;;;;;;;6.75;2.70;;;21.80;91.20;;;;;;4984595;28;20050;-66
2023/07/27 09:46:45;;;;;;;5.13;2.60;;;21.80;90.80;;;;;;4982780;28;20030;-65
2023/07/27 09:49:31;;;;;;;10.35;3.45;;;21.80;90.90;;;;;;4988281;28;20105;-66
2023/07/27 09:52:19;;;;;;;8.40;3.20;;;21.80;90.80;;;;;;4980103;28;20129;-66
2023/07/27 09:55:06;;;;;;;9.82;2.70;;;21.80;90.70;;;;;;4984511;28;20042;-66
2023/07/27 09:57:52;;;;;;;4.25;2.15;;;21.80;90.60;;;;;;4983868;28;20077;-66
2023/07/27 10:00:38;;;;;;;3.55;2.10;;;21.90;90.60;;;;;;4985281;28;20062;-65
2023/07/27 10:03:24;;;;;;;6.20;2.53;;;22.00;90.70;;;;;;4984143;28;20085;-66
2023/07/27 10:06:10;;;;;;;7.88;2.95;;;22.10;90.90;;;;;;4976614;28;20089;-70
2023/07/27 10:08:56;;;;;;;5.18;2.10;;;22.20;90.90;;;;;;4986853;28;20054;-70
2023/07/27 10:11:53;;;;;;;4.20;3.08;;;22.30;90.80;;;;;;4986809;28;20097;-70
2023/07/27 10:14:39;;;;;;;3.38;1.80;;;22.40;90.80;;;;;;4983996;28;20055;-70
2023/07/27 10:17:44;;;;;;;5.50;2.33;;;22.50;90.80;;;;;;4983947;28;20034;-69
2023/07/27 10:20:33;;;;;;;4.72;2.80;;;22.60;91.00;;;;;;4985205;28;20188;-70
2023/07/27 10:23:26;;;;;;;6.50;2.15;;;22.60;91.20;;;;;;4985562;28;20053;-70
2023/07/27 10:26:12;;;;;;;3.17;2.28;;;22.70;90.80;;;;;;4981456;28;20086;-70
2023/07/27 10:29:13;;;;;;;3.63;2.40;;;22.80;90.80;;;;;;4970854;28;20054;-68
2023/07/27 10:32:00;;;;;;;4.30;2.60;;;22.80;90.60;;;;;;4985282;28;20557;-70
2023/07/27 10:34:51;;;;;;;4.00;1.77;;;22.90;90.40;;;;;;4974488;28;20514;-76
2023/07/27 10:37:55;;;;;;;4.03;2.63;;;23.00;90.70;;;;;;4988409;28;20113;-69
2023/07/27 10:40:43;;;;;;;20.73;11.88;;;23.10;90.50;;;;;;4990622;28;20334;-73
2023/07/27 10:43:29;;;;;;;9.55;4.53;;;23.20;90.40;;;;;;4984200;28;20149;-71
2023/07/27 10:46:22;;;;;;;4.95;2.95;;;23.20;90.10;;;;;;4987873;28;20125;-72
2023/07/27 10:49:12;;;;;;;4.40;2.67;;;23.20;89.60;;;;;;4971739;28;20050;-75
2023/07/27 10:52:00;;;;;;;4.80;2.40;;;23.20;89.10;;;;;;4976683;28;20101;-71
2023/07/27 10:54:47;;;;;;;4.03;2.17;;;23.20;89.10;;;;;;4981859;28;20046;-71
2023/07/27 10:57:34;;;;;;;3.42;2.30;;;23.10;89.10;;;;;;4988866;28;20113;-70
2023/07/27 11:00:20;;;;;;;3.72;2.30;;;23.00;89.40;;;;;;4987455;28;20121;-70
2023/07/27 11:03:07;;;;;;;6.68;3.28;;;23.00;89.60;;;;;;4985994;28;20473;-70
2023/07/27 11:06:04;;;;;;;6.53;2.40;;;22.90;89.70;;;;;;4987324;28;20060;-70
2023/07/27 11:08:50;;;;;;;5.90;2.33;;;22.90;90.10;;;;;;4989825;28;20043;-70
2023/07/27 11:11:36;;;;;;;12.20;2.83;;;22.90;89.80;;;;;;4973045;28;20106;-70
2023/07/27 11:14:22;;;;;;;7.55;2.85;;;22.80;90.00;;;;;;4971940;28;20046;-70
2023/07/27 11:17:10;;;;;;;7.80;2.88;;;22.80;90.00;;;;;;4988606;28;20057;-70
2023/07/27 11:19:56;;;;;;;5.10;2.53;;;22.80;89.80;;;;;;4989329;28;20136;-70
2023/07/27 11:22:42;;;;;;;4.95;2.38;;;22.80;90.10;;;;;;4987438;28;20423;-70
2023/07/27 11:25:35;;;;;;;3.42;2.10;;;22.70;90.10;;;;;;4990805;28;20034;-70
2023/07/27 11:28:22;;;;;;;3.53;2.10;;;22.70;90.20;;;;;;4987874;28;20036;-70
2023/07/27 11:31:08;;;;;;;4.10;2.45;;;22.70;90.10;;;;;;4988648;28;20066;-71
2023/07/27 11:33:58;;;;;;;5.03;2.70;;;22.70;90.60;;;;;;4987618;28;20476;-70
2023/07/27 11:36:49;;;;;;;3.78;2.20;;;22.60;90.70;;;;;;4975180;28;20038;-71
2023/07/27 11:39:35;;;;;;;8.75;2.95;;;22.60;90.90;;;;;;4989300;28;20038;-71
2023/07/27 11:42:29;;;;;;;17.40;4.63;;;22.70;91.10;;;;;;4986562;28;20161;-71
2023/07/27 11:45:16;;;;;;;6.40;3.00;;;22.60;91.50;;;;;;4989616;28;20046;-71
2023/07/27 11:48:03;;;;;;;6.35;2.80;;;22.60;91.60;;;;;;4986694;28;20054;-71
2023/07/27 11:50:50;;;;;;;9.73;3.35;;;22.60;91.90;;;;;;4989702;28;20042;-70
2023/07/27 11:53:36;;;;;;;7.57;2.95;;;22.60;92.10;;;;;;4986179;28;20062;-70
2023/07/27 11:56:22;;;;;;;6.97;3.30;;;22.60;92.20;;;;;;4988611;28;20166;-71
2023/07/27 11:59:08;;;;;;;5.93;3.00;;;22.60;92.30;;;;;;4970745;28;20081;-71
2023/07/27 12:01:54;;;;;;;9.05;3.60;;;22.60;92.70;;;;;;4972306;28;20035;-71
2023/07/27 12:04:42;;;;;;;4.03;2.60;;;22.70;92.80;;;;;;4981764;28;20070;-71
2023/07/27 12:07:32;;;;;;;9.80;3.47;;;22.70;93.00;;;;;;4988068;28;20398;-71
2023/07/27 12:10:20;;;;;;;7.32;3.45;;;22.70;93.00;;;;;;4989282;28;20042;-71
2023/07/27 12:13:11;;;;;;;11.45;3.85;;;22.70;92.90;;;;;;4985211;28;20058;-71
2023/07/27 12:15:59;;;;;;;6.60;3.22;;;22.70;93.10;;;;;;4989780;28;20406;-71
2023/07/27 12:18:45;;;;;;;7.60;3.25;;;22.70;93.10;;;;;;4986648;28;20506;-71
2023/07/27 12:21:31;;;;;;;5.18;3.55;;;22.70;93.30;;;;;;4987765;28;20042;-72
2023/07/27 12:24:17;;;;;;;10.10;3.63;;;22.70;93.30;;;;;;4990221;28;20146;-71
2023/07/27 12:27:06;;;;;;;4.97;3.13;;;22.70;93.40;;;;;;4985140;28;20066;-71
2023/07/27 12:29:52;;;;;;;10.10;3.72;;;22.70;93.70;;;;;;4969679;28;20046;-72
2023/07/27 12:32:38;;;;;;;6.45;3.03;;;22.80;93.70;;;;;;4984392;28;20158;-71
2023/07/27 12:35:25;;;;;;;8.50;3.28;;;22.80;94.00;;;;;;4991216;28;20034;-71
2023/07/27 12:38:11;;;;;;;5.07;2.83;;;22.90;93.90;;;;;;4989813;28;20057;-71
2023/07/27 12:40:56;;;;;;;3.88;2.42;;;22.90;93.90;;;;;;4998420;28;20078;-71
2023/07/27 12:43:42;;;;;;;7.55;3.40;;;22.90;93.90;;;;;;4987092;28;20049;-71
2023/07/27 12:46:28;;;;;;;8.55;3.63;;;22.90;94.00;;;;;;4971747;28;20042;-71
2023/07/27 12:49:14;;;;;;;6.55;3.05;;;23.00;93.90;;;;;;4993507;28;20043;-72
2023/07/27 12:52:00;;;;;;;4.28;2.65;;;23.00;93.70;;;;;;4990773;28;20133;-72
2023/07/27 12:54:46;;;;;;;5.55;2.20;;;23.00;93.70;;;;;;4993430;28;20042;-72
2023/07/27 12:57:32;;;;;;;3.92;2.80;;;23.00;93.80;;;;;;4989523;28;20141;-72
2023/07/27 13:00:18;;;;;;;3.50;2.28;;;23.00;93.50;;;;;;4988925;28;20133;-72
2023/07/27 13:03:04;;;;;;;6.18;3.25;;;23.00;93.60;;;;;;4991130;28;20050;-72
2023/07/27 13:05:50;;;;;;;7.80;3.38;;;23.00;93.50;;;;;;4991889;28;20073;-71
2023/07/27 13:08:38;;;;;;;6.65;3.00;;;23.00;93.50;;;;;;4990608;28;20078;-70
2023/07/27 13:11:23;;;;;;;5.43;2.58;;;23.10;93.30;;;;;;4988253;28;20499;-72
2023/07/27 13:14:09;;;;;;;4.65;2.97;;;23.10;93.20;;;;;;4972804;28;20110;-71
2023/07/27 13:16:55;;;;;;;5.22;2.88;;;23.10;93.00;;;;;;4978088;28;20047;-71
2023/07/27 13:19:41;;;;;;;5.32;2.83;;;23.10;92.70;;;;;;4991602;28;20481;-71
2023/07/27 13:22:27;;;;;;;4.38;2.58;;;23.10;92.70;;;;;;4990829;28;20434;-71
2023/07/27 13:25:13;;;;;;;6.10;2.92;;;23.10;92.90;;;;;;4993167;28;20049;-70
2023/07/27 13:27:59;;;;;;;7.35;4.63;;;23.00;92.70;;;;;;4988858;28;20050;-71
2023/07/27 13:30:45;;;;;;;7.35;3.78;;;23.00;92.80;;;;;;4991483;28;20042;-71
2023/07/27 13:33:31;;;;;;;7.95;3.45;;;22.90;92.70;;;;;;4990071;28;20066;-71
2023/07/27 13:36:17;;;;;;;6.05;4.07;;;22.90;92.70;;;;;;4989253;28;20050;-71
2023/07/27 13:39:03;;;;;;;7.82;4.47;;;22.80;92.80;;;;;;4979581;28;20403;-72
2023/07/27 13:41:49;;;;;;;12.25;5.07;;;22.60;92.90;;;;;;4990404;28;20051;-71
2023/07/27 13:44:35;;;;;;;6.65;3.97;;;22.60;93.10;;;;;;4992792;28;20403;-70
2023/07/27 13:47:21;;;;;;;8.10;4.28;;;22.50;93.20;;;;;;4990415;28;20602;-70
2023/07/27 13:50:07;;;;;;;6.70;3.63;;;22.40;93.50;;;;;;4992614;28;20173;-70
2023/07/27 13:52:53;;;;;;;9.00;3.63;;;22.40;93.60;;;;;;4991764;28;20062;-69
2023/07/27 13:55:39;;;;;;;5.05;3.40;;;22.30;93.50;;;;;;4991206;28;20057;-71
2023/07/27 13:58:25;;;;;;;8.23;3.42;;;22.30;93.40;;;;;;4988553;28;20088;-71
2023/07/27 14:01:11;;;;;;;4.95;2.72;;;22.40;93.50;;;;;;4991760;28;20049;-69
2023/07/27 14:03:57;;;;;;;3.83;2.45;;;22.40;93.40;;;;;;4991845;28;20042;-70
2023/07/27 14:06:44;;;;;;;5.30;3.05;;;22.40;93.30;;;;;;4989123;28;20562;-69
2023/07/27 14:09:29;;;;;;;6.38;3.00;;;22.40;93.20;;;;;;4990105;28;20541;-71
2023/07/27 14:12:16;;;;;;;11.98;3.95;;;22.40;93.30;;;;;;4988398;28;20042;-71
2023/07/27 14:15:02;;;;;;;3.95;3.05;;;22.40;93.10;;;;;;4991255;28;20050;-70
2023/07/27 14:17:48;;;;;;;6.80;3.38;;;22.40;92.80;;;;;;4981824;28;20134;-69
2023/07/27 14:20:34;;;;;;;6.72;3.05;;;22.40;92.70;;;;;;4984081;28;20109;-69
2023/07/27 14:23:20;;;;;;;5.05;2.72;;;22.40;92.90;;;;;;4967010;28;20057;-68
2023/07/27 14:26:06;;;;;;;4.93;2.80;;;22.40;93.00;;;;;;4980802;28;20045;-69
2023/07/27 14:28:52;;;;;;;9.10;3.38;;;22.50;92.90;;;;;;4988693;28;20101;-69
2023/07/27 14:31:38;;;;;;;18.15;4.22;;;22.50;92.60;;;;;;4985820;28;20190;-68
2023/07/27 14:34:24;;;;;;;4.63;2.70;;;22.50;92.70;;;;;;4987501;28;20109;-68